sensor_id;sensor_type;location;lat;lon;timestamp;pressure;altitude;pressure_sealevel;temperature;humidity
6506;BME280;3286;49.858;8.768;2023-04-10T00:00:18;99858.03;;;7.02;50.75
6506;BME280;3286;49.858;8.768;2023-04-10T00:02:44;99856.56;;;6.73;51.51
6506;BME280;3286;49.858;8.768;2023-04-10T00:05:11;99861.78;;;6.86;51.53
6506;BME280;3286;49.858;8.768;2023-04-10T00:07:38;99862.44;;;6.77;51.99
6506;BME280;3286;49.858;8.768;2023-04-10T00:10:06;99856.72;;;6.96;50.77
6506;BME280;3286;49.858;8.768;2023-04-10T00:12:34;99862.13;;;7.06;50.58
6506;BME280;3286;49.858;8.768;2023-04-10T00:15:01;99863.50;;;6.99;51.08
6506;BME280;3286;49.858;8.768;2023-04-10T00:17:28;99872.16;;;7.12;50.48
6506;BME280;3286;49.858;8.768;2023-04-10T00:19:55;99874.69;;;7.14;50.16
6506;BME280;3286;49.858;8.768;2023-04-10T00:22:23;99876.31;;;6.66;51.59
6506;BME280;3286;49.858;8.768;2023-04-10T00:24:50;99876.53;;;6.63;51.20
6506;BME280;3286;49.858;8.768;2023-04-10T00:27:18;99879.34;;;6.73;50.79
6506;BME280;3286;49.858;8.768;2023-04-10T00:29:45;99871.16;;;6.64;51.49
6506;BME280;3286;49.858;8.768;2023-04-10T00:32:11;99874.00;;;6.61;51.31
6506;BME280;3286;49.858;8.768;2023-04-10T00:34:38;99872.97;;;6.64;51.27
6506;BME280;3286;49.858;8.768;2023-04-10T00:37:05;99878.75;;;6.43;51.80
6506;BME280;3286;49.858;8.768;2023-04-10T00:39:31;99869.84;;;6.59;51.40
6506;BME280;3286;49.858;8.768;2023-04-10T00:41:58;99875.13;;;6.83;50.67
6506;BME280;3286;49.858;8.768;2023-04-10T00:44:27;99870.94;;;6.67;50.79
6506;BME280;3286;49.858;8.768;2023-04-10T00:46:54;99870.81;;;6.82;50.37
6506;BME280;3286;49.858;8.768;2023-04-10T00:49:21;99872.34;;;6.60;51.16
6506;BME280;3286;49.858;8.768;2023-04-10T00:51:47;99880.66;;;6.54;51.39
6506;BME280;3286;49.858;8.768;2023-04-10T00:54:14;99875.41;;;6.41;51.52
6506;BME280;3286;49.858;8.768;2023-04-10T00:56:42;99877.72;;;6.59;51.21
6506;BME280;3286;49.858;8.768;2023-04-10T00:59:09;99871.91;;;6.66;50.75
6506;BME280;3286;49.858;8.768;2023-04-10T01:01:37;99871.53;;;6.34;51.18
6506;BME280;3286;49.858;8.768;2023-04-10T01:04:04;99868.69;;;6.50;51.25
6506;BME280;3286;49.858;8.768;2023-04-10T01:06:40;99865.91;;;6.01;52.52
6506;BME280;3286;49.858;8.768;2023-04-10T01:09:16;99863.13;;;6.55;50.89
6506;BME280;3286;49.858;8.768;2023-04-10T01:11:49;99863.66;;;6.21;51.78
6506;BME280;3286;49.858;8.768;2023-04-10T01:14:26;99868.78;;;5.84;52.75
6506;BME280;3286;49.858;8.768;2023-04-10T01:17:07;99868.50;;;6.27;51.56
6506;BME280;3286;49.858;8.768;2023-04-10T01:19:52;99863.13;;;6.55;50.79
6506;BME280;3286;49.858;8.768;2023-04-10T01:22:27;99870.16;;;6.41;51.16
6506;BME280;3286;49.858;8.768;2023-04-10T01:25:12;99868.53;;;6.64;50.98
6506;BME280;3286;49.858;8.768;2023-04-10T01:27:48;99876.47;;;6.38;52.07
6506;BME280;3286;49.858;8.768;2023-04-10T01:30:22;99870.78;;;6.58;50.87
6506;BME280;3286;49.858;8.768;2023-04-10T01:32:51;99878.38;;;6.23;51.91
6506;BME280;3286;49.858;8.768;2023-04-10T01:35:20;99877.13;;;6.16;51.26
6506;BME280;3286;49.858;8.768;2023-04-10T01:37:49;99881.31;;;6.32;51.78
6506;BME280;3286;49.858;8.768;2023-04-10T01:40:18;99880.88;;;6.38;51.59
6506;BME280;3286;49.858;8.768;2023-04-10T01:42:49;99879.34;;;5.69;53.44
6506;BME280;3286;49.858;8.768;2023-04-10T01:45:19;99882.31;;;5.90;52.98
6506;BME280;3286;49.858;8.768;2023-04-10T01:47:48;99883.84;;;6.07;52.06
6506;BME280;3286;49.858;8.768;2023-04-10T01:50:15;99878.81;;;6.17;51.67
6506;BME280;3286;49.858;8.768;2023-04-10T01:52:44;99887.34;;;5.93;52.37
6506;BME280;3286;49.858;8.768;2023-04-10T01:55:12;99892.09;;;6.27;51.51
6506;BME280;3286;49.858;8.768;2023-04-10T01:57:39;99890.22;;;6.42;50.50
6506;BME280;3286;49.858;8.768;2023-04-10T02:00:07;99884.88;;;6.18;51.41
6506;BME280;3286;49.858;8.768;2023-04-10T02:02:34;99884.00;;;6.43;51.01
6506;BME280;3286;49.858;8.768;2023-04-10T02:05:02;99874.59;;;6.28;51.17
6506;BME280;3286;49.858;8.768;2023-04-10T02:07:30;99872.69;;;6.04;52.32
6506;BME280;3286;49.858;8.768;2023-04-10T02:10:10;99866.88;;;5.60;53.38
6506;BME280;3286;49.858;8.768;2023-04-10T02:12:41;99858.69;;;5.51;53.14
6506;BME280;3286;49.858;8.768;2023-04-10T02:15:11;99864.09;;;5.35;53.43
6506;BME280;3286;49.858;8.768;2023-04-10T02:17:39;99853.97;;;5.57;53.56
6506;BME280;3286;49.858;8.768;2023-04-10T02:20:09;99862.63;;;5.44;53.79
6506;BME280;3286;49.858;8.768;2023-04-10T02:22:36;99862.69;;;5.30;54.25
6506;BME280;3286;49.858;8.768;2023-04-10T02:25:06;99857.13;;;5.21;55.09
6506;BME280;3286;49.858;8.768;2023-04-10T02:27:34;99848.72;;;5.70;53.63
6506;BME280;3286;49.858;8.768;2023-04-10T02:30:01;99851.66;;;5.65;53.08
6506;BME280;3286;49.858;8.768;2023-04-10T02:32:28;99848.53;;;5.73;52.92
6506;BME280;3286;49.858;8.768;2023-04-10T02:34:55;99845.53;;;5.39;53.68
6506;BME280;3286;49.858;8.768;2023-04-10T02:37:23;99838.75;;;5.62;53.17
6506;BME280;3286;49.858;8.768;2023-04-10T02:39:51;99841.63;;;5.72;52.71
6506;BME280;3286;49.858;8.768;2023-04-10T02:42:18;99839.84;;;6.11;52.55
6506;BME280;3286;49.858;8.768;2023-04-10T02:44:47;99830.47;;;5.55;53.21
6506;BME280;3286;49.858;8.768;2023-04-10T02:47:14;99834.22;;;5.51;52.93
6506;BME280;3286;49.858;8.768;2023-04-10T02:49:41;99833.81;;;5.57;52.64
6506;BME280;3286;49.858;8.768;2023-04-10T02:52:07;99832.31;;;5.40;54.25
6506;BME280;3286;49.858;8.768;2023-04-10T02:54:35;99834.72;;;5.30;54.58
6506;BME280;3286;49.858;8.768;2023-04-10T02:57:02;99835.81;;;5.66;52.98
6506;BME280;3286;49.858;8.768;2023-04-10T02:59:29;99834.44;;;5.48;54.66
6506;BME280;3286;49.858;8.768;2023-04-10T03:01:55;99828.19;;;5.89;52.49
6506;BME280;3286;49.858;8.768;2023-04-10T03:04:22;99824.41;;;5.55;53.36
6506;BME280;3286;49.858;8.768;2023-04-10T03:06:49;99824.19;;;5.58;53.23
6506;BME280;3286;49.858;8.768;2023-04-10T03:09:15;99818.94;;;5.58;53.42
6506;BME280;3286;49.858;8.768;2023-04-10T03:11:43;99821.69;;;5.69;53.21
6506;BME280;3286;49.858;8.768;2023-04-10T03:14:10;99826.91;;;5.69;52.70
6506;BME280;3286;49.858;8.768;2023-04-10T03:16:36;99819.91;;;5.83;52.79
6506;BME280;3286;49.858;8.768;2023-04-10T03:19:03;99826.91;;;5.56;53.57
6506;BME280;3286;49.858;8.768;2023-04-10T03:21:30;99828.56;;;5.57;53.75
6506;BME280;3286;49.858;8.768;2023-04-10T03:23:57;99823.63;;;5.40;53.84
6506;BME280;3286;49.858;8.768;2023-04-10T03:26:23;99813.66;;;5.32;54.21
6506;BME280;3286;49.858;8.768;2023-04-10T03:28:51;99817.00;;;5.34;53.83
6506;BME280;3286;49.858;8.768;2023-04-10T03:31:18;99814.06;;;5.26;54.18
6506;BME280;3286;49.858;8.768;2023-04-10T03:33:44;99815.78;;;5.65;52.74
6506;BME280;3286;49.858;8.768;2023-04-10T03:36:11;99812.25;;;5.54;53.27
6506;BME280;3286;49.858;8.768;2023-04-10T03:38:38;99815.28;;;5.20;53.83
6506;BME280;3286;49.858;8.768;2023-04-10T03:41:05;99814.41;;;5.06;54.03
6506;BME280;3286;49.858;8.768;2023-04-10T03:43:32;99816.94;;;5.08;54.66
6506;BME280;3286;49.858;8.768;2023-04-10T03:46:00;99803.50;;;5.00;55.08
6506;BME280;3286;49.858;8.768;2023-04-10T03:48:27;99804.97;;;5.04;54.80
6506;BME280;3286;49.858;8.768;2023-04-10T03:50:54;99805.06;;;5.30;53.92
6506;BME280;3286;49.858;8.768;2023-04-10T03:53:21;99802.06;;;5.08;54.47
6506;BME280;3286;49.858;8.768;2023-04-10T03:55:48;99803.97;;;4.64;55.48
6506;BME280;3286;49.858;8.768;2023-04-10T03:58:16;99798.38;;;4.98;55.21
6506;BME280;3286;49.858;8.768;2023-04-10T04:00:43;99799.75;;;4.34;57.18
6506;BME280;3286;49.858;8.768;2023-04-10T04:03:11;99803.91;;;4.93;55.37
6506;BME280;3286;49.858;8.768;2023-04-10T04:05:38;99802.16;;;5.07;54.80
6506;BME280;3286;49.858;8.768;2023-04-10T04:08:04;99812.97;;;4.88;54.82
6506;BME280;3286;49.858;8.768;2023-04-10T04:10:31;99808.38;;;4.64;55.58
6506;BME280;3286;49.858;8.768;2023-04-10T04:12:58;99812.13;;;4.60;56.04
6506;BME280;3286;49.858;8.768;2023-04-10T04:15:24;99805.84;;;4.77;54.64
6506;BME280;3286;49.858;8.768;2023-04-10T04:17:51;99801.94;;;4.97;54.47
6506;BME280;3286;49.858;8.768;2023-04-10T04:20:19;99798.81;;;4.77;54.31
6506;BME280;3286;49.858;8.768;2023-04-10T04:22:46;99792.69;;;5.32;53.17
6506;BME280;3286;49.858;8.768;2023-04-10T04:25:12;99803.59;;;5.26;53.65
6506;BME280;3286;49.858;8.768;2023-04-10T04:27:39;99797.97;;;4.77;54.81
6506;BME280;3286;49.858;8.768;2023-04-10T04:30:07;99800.38;;;5.07;54.39
6506;BME280;3286;49.858;8.768;2023-04-10T04:32:34;99807.25;;;4.68;55.05
6506;BME280;3286;49.858;8.768;2023-04-10T04:35:00;99802.41;;;4.47;56.22
6506;BME280;3286;49.858;8.768;2023-04-10T04:37:28;99800.38;;;4.53;54.98
6506;BME280;3286;49.858;8.768;2023-04-10T04:39:55;99805.31;;;4.85;55.28
6506;BME280;3286;49.858;8.768;2023-04-10T04:42:22;99806.13;;;5.00;54.33
6506;BME280;3286;49.858;8.768;2023-04-10T04:44:48;99805.00;;;5.17;53.72
6506;BME280;3286;49.858;8.768;2023-04-10T04:47:15;99812.28;;;4.71;55.41
6506;BME280;3286;49.858;8.768;2023-04-10T04:49:42;99804.13;;;5.44;52.85
6506;BME280;3286;49.858;8.768;2023-04-10T04:52:08;99813.06;;;4.59;55.16
6506;BME280;3286;49.858;8.768;2023-04-10T04:54:37;99810.06;;;4.65;54.97
6506;BME280;3286;49.858;8.768;2023-04-10T04:57:03;99804.75;;;4.94;54.02
6506;BME280;3286;49.858;8.768;2023-04-10T04:59:30;99808.53;;;4.33;55.31
6506;BME280;3286;49.858;8.768;2023-04-10T05:01:57;99816.97;;;4.66;54.82
6506;BME280;3286;49.858;8.768;2023-04-10T05:04:23;99807.72;;;4.75;54.46
6506;BME280;3286;49.858;8.768;2023-04-10T05:06:50;99810.00;;;4.79;54.39
6506;BME280;3286;49.858;8.768;2023-04-10T05:09:16;99810.41;;;5.01;54.66
6506;BME280;3286;49.858;8.768;2023-04-10T05:11:44;99812.94;;;4.75;55.75
6506;BME280;3286;49.858;8.768;2023-04-10T05:14:11;99808.19;;;4.95;55.31
6506;BME280;3286;49.858;8.768;2023-04-10T05:16:37;99812.06;;;5.16;55.36
6506;BME280;3286;49.858;8.768;2023-04-10T05:19:04;99808.53;;;5.43;54.64
6506;BME280;3286;49.858;8.768;2023-04-10T05:21:31;99809.38;;;5.44;54.35
6506;BME280;3286;49.858;8.768;2023-04-10T05:23:57;99808.41;;;5.32;55.31
6506;BME280;3286;49.858;8.768;2023-04-10T05:26:24;99806.78;;;5.70;53.73
6506;BME280;3286;49.858;8.768;2023-04-10T05:28:52;99808.94;;;5.37;54.52
6506;BME280;3286;49.858;8.768;2023-04-10T05:31:19;99817.31;;;6.08;53.62
6506;BME280;3286;49.858;8.768;2023-04-10T05:33:46;99818.41;;;5.40;55.35
6506;BME280;3286;49.858;8.768;2023-04-10T05:36:15;99810.47;;;5.67;54.50
6506;BME280;3286;49.858;8.768;2023-04-10T05:38:43;99809.94;;;5.62;54.65
6506;BME280;3286;49.858;8.768;2023-04-10T05:41:10;99812.44;;;5.76;54.38
6506;BME280;3286;49.858;8.768;2023-04-10T05:43:36;99822.31;;;5.86;54.68
6506;BME280;3286;49.858;8.768;2023-04-10T05:46:05;99817.91;;;5.86;54.88
6506;BME280;3286;49.858;8.768;2023-04-10T05:48:31;99819.78;;;6.36;54.04
6506;BME280;3286;49.858;8.768;2023-04-10T05:50:58;99825.47;;;6.04;54.32
6506;BME280;3286;49.858;8.768;2023-04-10T05:53:27;99830.19;;;6.25;54.64
6506;BME280;3286;49.858;8.768;2023-04-10T05:55:55;99826.66;;;6.63;53.29
6506;BME280;3286;49.858;8.768;2023-04-10T05:58:22;99833.88;;;6.22;54.52
6506;BME280;3286;49.858;8.768;2023-04-10T06:00:48;99833.88;;;6.72;53.12
6506;BME280;3286;49.858;8.768;2023-04-10T06:03:17;99831.38;;;6.95;52.23
6506;BME280;3286;49.858;8.768;2023-04-10T06:05:44;99828.53;;;6.98;52.72
6506;BME280;3286;49.858;8.768;2023-04-10T06:08:10;99826.88;;;6.97;52.57
6506;BME280;3286;49.858;8.768;2023-04-10T06:10:37;99829.38;;;6.99;52.52
6506;BME280;3286;49.858;8.768;2023-04-10T06:13:03;99823.66;;;7.05;52.42
6506;BME280;3286;49.858;8.768;2023-04-10T06:15:30;99821.13;;;7.28;51.91
6506;BME280;3286;49.858;8.768;2023-04-10T06:17:57;99822.47;;;7.09;52.41
6506;BME280;3286;49.858;8.768;2023-04-10T06:20:25;99814.97;;;7.51;51.17
6506;BME280;3286;49.858;8.768;2023-04-10T06:22:52;99814.69;;;7.32;51.69
6506;BME280;3286;49.858;8.768;2023-04-10T06:25:19;99806.38;;;7.49;51.59
6506;BME280;3286;49.858;8.768;2023-04-10T06:27:45;99810.00;;;7.60;51.04
6506;BME280;3286;49.858;8.768;2023-04-10T06:30:12;99796.06;;;8.05;50.23
6506;BME280;3286;49.858;8.768;2023-04-10T06:32:38;99803.13;;;8.16;50.36
6506;BME280;3286;49.858;8.768;2023-04-10T06:35:06;99797.97;;;8.03;50.79
6506;BME280;3286;49.858;8.768;2023-04-10T06:37:34;99795.69;;;8.21;50.84
6506;BME280;3286;49.858;8.768;2023-04-10T06:40:02;99795.34;;;8.25;50.83
6506;BME280;3286;49.858;8.768;2023-04-10T06:42:29;99789.13;;;8.61;50.18
6506;BME280;3286;49.858;8.768;2023-04-10T06:44:56;99790.59;;;8.75;50.14
6506;BME280;3286;49.858;8.768;2023-04-10T06:47:23;99794.91;;;8.87;50.74
6506;BME280;3286;49.858;8.768;2023-04-10T06:49:49;99796.69;;;8.98;51.38
6506;BME280;3286;49.858;8.768;2023-04-10T06:52:16;99790.75;;;9.38;50.54
6506;BME280;3286;49.858;8.768;2023-04-10T06:54:44;99791.19;;;9.44;50.69
6506;BME280;3286;49.858;8.768;2023-04-10T06:57:11;99795.22;;;9.90;49.72
6506;BME280;3286;49.858;8.768;2023-04-10T06:59:37;99789.63;;;9.62;50.11
6506;BME280;3286;49.858;8.768;2023-04-10T07:02:04;99795.91;;;9.92;49.41
6506;BME280;3286;49.858;8.768;2023-04-10T07:04:31;99793.00;;;9.95;49.73
6506;BME280;3286;49.858;8.768;2023-04-10T07:06:57;99807.56;;;10.21;49.98
6506;BME280;3286;49.858;8.768;2023-04-10T07:09:25;99806.16;;;10.17;49.51
6506;BME280;3286;49.858;8.768;2023-04-10T07:11:53;99797.69;;;9.92;49.51
6506;BME280;3286;49.858;8.768;2023-04-10T07:14:19;99798.25;;;10.17;49.14
6506;BME280;3286;49.858;8.768;2023-04-10T07:16:47;99785.22;;;9.63;49.82
6506;BME280;3286;49.858;8.768;2023-04-10T07:19:13;99784.38;;;9.93;48.59
6506;BME280;3286;49.858;8.768;2023-04-10T07:21:40;99786.97;;;9.83;49.14
6506;BME280;3286;49.858;8.768;2023-04-10T07:24:07;99790.16;;;10.08;48.44
6506;BME280;3286;49.858;8.768;2023-04-10T07:26:33;99791.28;;;9.84;49.44
6506;BME280;3286;49.858;8.768;2023-04-10T07:29:01;99787.28;;;9.90;49.21
6506;BME280;3286;49.858;8.768;2023-04-10T07:31:28;99795.50;;;10.28;49.44
6506;BME280;3286;49.858;8.768;2023-04-10T07:33:55;99790.03;;;10.51;48.81
6506;BME280;3286;49.858;8.768;2023-04-10T07:36:21;99777.44;;;10.84;49.09
6506;BME280;3286;49.858;8.768;2023-04-10T07:38:48;99778.84;;;11.27;48.67
6506;BME280;3286;49.858;8.768;2023-04-10T07:41:14;99779.94;;;11.35;48.60
6506;BME280;3286;49.858;8.768;2023-04-10T07:43:41;99774.94;;;11.32;48.54
6506;BME280;3286;49.858;8.768;2023-04-10T07:46:09;99771.56;;;11.49;48.97
6506;BME280;3286;49.858;8.768;2023-04-10T07:48:36;99771.53;;;12.16;46.12
6506;BME280;3286;49.858;8.768;2023-04-10T07:51:03;99764.88;;;12.95;44.15
6506;BME280;3286;49.858;8.768;2023-04-10T07:53:30;99751.78;;;13.56;43.34
6506;BME280;3286;49.858;8.768;2023-04-10T07:55:56;99762.06;;;14.20;42.44
6506;BME280;3286;49.858;8.768;2023-04-10T07:58:23;99756.09;;;13.12;43.29
6506;BME280;3286;49.858;8.768;2023-04-10T08:00:50;99757.00;;;12.85;44.45
6506;BME280;3286;49.858;8.768;2023-04-10T08:03:18;99757.75;;;13.13;43.78
6506;BME280;3286;49.858;8.768;2023-04-10T08:05:44;99749.69;;;14.45;40.54
6506;BME280;3286;49.858;8.768;2023-04-10T08:08:11;99754.13;;;13.59;42.09
6506;BME280;3286;49.858;8.768;2023-04-10T08:10:38;99749.28;;;13.54;40.62
6506;BME280;3286;49.858;8.768;2023-04-10T08:13:04;99748.06;;;12.68;41.73
6506;BME280;3286;49.858;8.768;2023-04-10T08:15:31;99743.03;;;13.90;39.93
6506;BME280;3286;49.858;8.768;2023-04-10T08:17:58;99742.31;;;14.90;37.96
6506;BME280;3286;49.858;8.768;2023-04-10T08:20:26;99733.97;;;14.69;37.83
6506;BME280;3286;49.858;8.768;2023-04-10T08:22:53;99734.88;;;13.91;38.61
6506;BME280;3286;49.858;8.768;2023-04-10T08:25:19;99737.09;;;14.04;39.63
6506;BME280;3286;49.858;8.768;2023-04-10T08:27:46;99730.78;;;13.00;39.73
6506;BME280;3286;49.858;8.768;2023-04-10T08:30:12;99734.97;;;13.02;40.02
6506;BME280;3286;49.858;8.768;2023-04-10T08:32:39;99735.19;;;12.55;41.61
6506;BME280;3286;49.858;8.768;2023-04-10T08:35:06;99726.53;;;13.78;39.03
6506;BME280;3286;49.858;8.768;2023-04-10T08:37:35;99722.72;;;14.15;39.28
6506;BME280;3286;49.858;8.768;2023-04-10T08:40:01;99718.88;;;14.77;37.88
6506;BME280;3286;49.858;8.768;2023-04-10T08:42:29;99719.50;;;14.63;37.65
6506;BME280;3286;49.858;8.768;2023-04-10T08:44:56;99715.94;;;14.29;37.31
6506;BME280;3286;49.858;8.768;2023-04-10T08:47:26;99705.72;;;15.34;35.15
6506;BME280;3286;49.858;8.768;2023-04-10T08:49:55;99698.16;;;16.11;34.46
6506;BME280;3286;49.858;8.768;2023-04-10T08:52:24;99703.47;;;14.30;36.29
6506;BME280;3286;49.858;8.768;2023-04-10T08:54:54;99701.06;;;14.02;37.15
6506;BME280;3286;49.858;8.768;2023-04-10T08:57:24;99696.84;;;14.34;37.16
6506;BME280;3286;49.858;8.768;2023-04-10T08:59:52;99689.38;;;15.45;35.91
6506;BME280;3286;49.858;8.768;2023-04-10T09:02:19;99693.75;;;15.30;35.12
6506;BME280;3286;49.858;8.768;2023-04-10T09:04:47;99686.13;;;14.85;35.96
6506;BME280;3286;49.858;8.768;2023-04-10T09:07:14;99688.25;;;14.65;36.25
6506;BME280;3286;49.858;8.768;2023-04-10T09:09:41;99672.59;;;15.28;35.61
6506;BME280;3286;49.858;8.768;2023-04-10T09:12:10;99674.81;;;16.44;33.93
6506;BME280;3286;49.858;8.768;2023-04-10T09:14:39;99673.34;;;16.42;33.40
6506;BME280;3286;49.858;8.768;2023-04-10T09:17:15;99675.41;;;16.00;33.37
6506;BME280;3286;49.858;8.768;2023-04-10T09:19:43;99667.28;;;15.85;33.85
6506;BME280;3286;49.858;8.768;2023-04-10T09:22:10;99659.06;;;16.58;32.88
6506;BME280;3286;49.858;8.768;2023-04-10T09:24:39;99650.31;;;15.94;32.95
6506;BME280;3286;49.858;8.768;2023-04-10T09:27:06;99645.50;;;16.83;33.04
6506;BME280;3286;49.858;8.768;2023-04-10T09:29:45;99648.44;;;16.73;33.38
6506;BME280;3286;49.858;8.768;2023-04-10T09:32:13;99638.06;;;15.68;32.72
6506;BME280;3286;49.858;8.768;2023-04-10T09:34:53;99634.41;;;16.56;32.59
6506;BME280;3286;49.858;8.768;2023-04-10T09:37:21;99615.75;;;16.94;32.02
6506;BME280;3286;49.858;8.768;2023-04-10T09:39:47;99622.69;;;17.33;32.26
6506;BME280;3286;49.858;8.768;2023-04-10T09:42:15;99618.47;;;18.49;30.85
6506;BME280;3286;49.858;8.768;2023-04-10T09:44:41;99613.59;;;18.53;29.24
6506;BME280;3286;49.858;8.768;2023-04-10T09:47:17;99604.22;;;18.92;28.43
6506;BME280;3286;49.858;8.768;2023-04-10T09:49:45;99607.31;;;18.67;28.80
6506;BME280;3286;49.858;8.768;2023-04-10T09:52:20;99596.81;;;19.65;29.07
6506;BME280;3286;49.858;8.768;2023-04-10T09:54:47;99591.22;;;20.55;27.41
6506;BME280;3286;49.858;8.768;2023-04-10T09:57:16;99574.41;;;18.74;27.17
6506;BME280;3286;49.858;8.768;2023-04-10T09:59:47;99590.13;;;19.40;29.57
6506;BME280;3286;49.858;8.768;2023-04-10T10:02:16;99583.97;;;18.83;27.34
6506;BME280;3286;49.858;8.768;2023-04-10T10:04:44;99582.16;;;18.90;28.44
6506;BME280;3286;49.858;8.768;2023-04-10T10:07:12;99572.44;;;19.11;28.80
6506;BME280;3286;49.858;8.768;2023-04-10T10:09:41;99563.75;;;20.06;25.49
6506;BME280;3286;49.858;8.768;2023-04-10T10:12:09;99565.28;;;19.67;26.64
6506;BME280;3286;49.858;8.768;2023-04-10T10:14:42;99563.03;;;18.93;26.90
6506;BME280;3286;49.858;8.768;2023-04-10T10:17:10;99555.06;;;18.43;27.40
6506;BME280;3286;49.858;8.768;2023-04-10T10:19:46;99560.22;;;19.37;27.12
6506;BME280;3286;49.858;8.768;2023-04-10T10:22:16;99558.06;;;19.19;27.33
6506;BME280;3286;49.858;8.768;2023-04-10T10:24:45;99560.69;;;17.90;28.19
6506;BME280;3286;49.858;8.768;2023-04-10T10:27:14;99554.25;;;18.71;28.77
6506;BME280;3286;49.858;8.768;2023-04-10T10:29:43;99548.84;;;17.77;28.88
6506;BME280;3286;49.858;8.768;2023-04-10T10:32:12;99544.31;;;17.56;28.18
6506;BME280;3286;49.858;8.768;2023-04-10T10:34:39;99536.31;;;18.72;29.53
6506;BME280;3286;49.858;8.768;2023-04-10T10:37:08;99535.81;;;19.74;27.00
6506;BME280;3286;49.858;8.768;2023-04-10T10:39:43;99540.66;;;17.79;27.82
6506;BME280;3286;49.858;8.768;2023-04-10T10:42:14;99528.13;;;19.57;27.20
6506;BME280;3286;49.858;8.768;2023-04-10T10:44:46;99515.34;;;19.46;24.93
6506;BME280;3286;49.858;8.768;2023-04-10T10:47:17;99511.56;;;20.02;24.18
6506;BME280;3286;49.858;8.768;2023-04-10T10:49:52;99523.72;;;18.59;26.61
6506;BME280;3286;49.858;8.768;2023-04-10T10:52:41;99511.56;;;20.02;25.40
6506;BME280;3286;49.858;8.768;2023-04-10T10:55:27;99512.78;;;20.33;24.82
6506;BME280;3286;49.858;8.768;2023-04-10T10:57:57;99502.50;;;20.17;23.30
6506;BME280;3286;49.858;8.768;2023-04-10T11:01:03;99497.13;;;19.96;24.37
6506;BME280;3286;49.858;8.768;2023-04-10T11:03:30;99504.81;;;17.73;26.10
6506;BME280;3286;49.858;8.768;2023-04-10T11:05:58;99501.19;;;18.81;24.85
6506;BME280;3286;49.858;8.768;2023-04-10T11:08:42;99484.38;;;18.94;24.54
6506;BME280;3286;49.858;8.768;2023-04-10T11:11:12;99485.09;;;19.72;24.84
6506;BME280;3286;49.858;8.768;2023-04-10T11:13:42;99492.28;;;20.99;24.23
6506;BME280;3286;49.858;8.768;2023-04-10T11:16:09;99487.31;;;21.49;22.73
6506;BME280;3286;49.858;8.768;2023-04-10T11:19:01;99488.19;;;20.90;22.73
6506;BME280;3286;49.858;8.768;2023-04-10T11:21:28;99474.66;;;21.56;22.08
6506;BME280;3286;49.858;8.768;2023-04-10T11:24:04;99473.16;;;19.81;23.46
6506;BME280;3286;49.858;8.768;2023-04-10T11:26:38;99465.25;;;19.53;23.31
6506;BME280;3286;49.858;8.768;2023-04-10T11:29:07;99460.78;;;18.70;24.25
6506;BME280;3286;49.858;8.768;2023-04-10T11:31:54;99451.13;;;20.26;24.09
6506;BME280;3286;49.858;8.768;2023-04-10T11:34:21;99434.91;;;19.32;24.19
6506;BME280;3286;49.858;8.768;2023-04-10T11:36:49;99436.50;;;18.07;24.73
6506;BME280;3286;49.858;8.768;2023-04-10T11:39:19;99430.38;;;19.19;24.33
6506;BME280;3286;49.858;8.768;2023-04-10T11:41:47;99427.06;;;20.86;24.54
6506;BME280;3286;49.858;8.768;2023-04-10T11:44:16;99423.16;;;19.27;25.12
6506;BME280;3286;49.858;8.768;2023-04-10T11:46:46;99428.56;;;19.40;24.62
6506;BME280;3286;49.858;8.768;2023-04-10T11:49:17;99427.75;;;18.56;23.86
6506;BME280;3286;49.858;8.768;2023-04-10T11:51:45;99416.88;;;20.29;24.53
6506;BME280;3286;49.858;8.768;2023-04-10T11:54:14;99426.28;;;19.37;24.79
6506;BME280;3286;49.858;8.768;2023-04-10T11:56:43;99420.19;;;20.96;24.75
6506;BME280;3286;49.858;8.768;2023-04-10T11:59:10;99414.28;;;20.74;24.20
6506;BME280;3286;49.858;8.768;2023-04-10T12:01:39;99410.44;;;20.50;22.15
6506;BME280;3286;49.858;8.768;2023-04-10T12:04:12;99407.50;;;19.30;24.08
6506;BME280;3286;49.858;8.768;2023-04-10T12:06:43;99404.69;;;19.59;24.40
6506;BME280;3286;49.858;8.768;2023-04-10T12:09:12;99402.00;;;21.37;23.08
6506;BME280;3286;49.858;8.768;2023-04-10T12:11:38;99387.34;;;21.72;23.11
6506;BME280;3286;49.858;8.768;2023-04-10T12:14:06;99387.38;;;19.61;22.85
6506;BME280;3286;49.858;8.768;2023-04-10T12:16:33;99393.31;;;20.37;25.32
6506;BME280;3286;49.858;8.768;2023-04-10T12:19:01;99391.06;;;20.14;24.09
6506;BME280;3286;49.858;8.768;2023-04-10T12:21:27;99391.13;;;20.87;23.45
6506;BME280;3286;49.858;8.768;2023-04-10T12:23:55;99382.59;;;20.96;22.76
6506;BME280;3286;49.858;8.768;2023-04-10T12:26:22;99381.75;;;19.22;23.82
6506;BME280;3286;49.858;8.768;2023-04-10T12:28:50;99376.41;;;20.30;23.43
6506;BME280;3286;49.858;8.768;2023-04-10T12:31:25;99365.44;;;21.62;23.13
6506;BME280;3286;49.858;8.768;2023-04-10T12:33:53;99355.69;;;22.74;22.49
6506;BME280;3286;49.858;8.768;2023-04-10T12:36:22;99360.00;;;21.75;23.86
6506;BME280;3286;49.858;8.768;2023-04-10T12:38:51;99368.41;;;20.89;22.59
6506;BME280;3286;49.858;8.768;2023-04-10T12:41:21;99354.28;;;22.53;21.58
6506;BME280;3286;49.858;8.768;2023-04-10T12:43:50;99350.50;;;22.72;21.90
6506;BME280;3286;49.858;8.768;2023-04-10T12:46:25;99351.78;;;22.33;22.69
6506;BME280;3286;49.858;8.768;2023-04-10T12:48:52;99347.53;;;23.11;21.39
6506;BME280;3286;49.858;8.768;2023-04-10T12:51:19;99336.28;;;23.57;21.67
6506;BME280;3286;49.858;8.768;2023-04-10T12:53:45;99337.78;;;24.24;21.26
6506;BME280;3286;49.858;8.768;2023-04-10T12:56:12;99334.34;;;23.03;18.71
6506;BME280;3286;49.858;8.768;2023-04-10T12:58:39;99336.06;;;23.94;20.12
6506;BME280;3286;49.858;8.768;2023-04-10T13:01:07;99335.75;;;24.43;19.25
6506;BME280;3286;49.858;8.768;2023-04-10T13:03:36;99332.56;;;24.06;20.82
6506;BME280;3286;49.858;8.768;2023-04-10T13:06:04;99326.06;;;23.95;19.73
6506;BME280;3286;49.858;8.768;2023-04-10T13:08:31;99322.25;;;20.99;21.72
6506;BME280;3286;49.858;8.768;2023-04-10T13:10:57;99317.06;;;22.80;22.04
6506;BME280;3286;49.858;8.768;2023-04-10T13:13:28;99298.69;;;23.20;20.37
6506;BME280;3286;49.858;8.768;2023-04-10T13:15:55;99300.38;;;23.33;20.85
6506;BME280;3286;49.858;8.768;2023-04-10T13:18:22;99303.00;;;23.87;20.52
6506;BME280;3286;49.858;8.768;2023-04-10T13:20:50;99301.91;;;22.98;19.85
6506;BME280;3286;49.858;8.768;2023-04-10T13:23:16;99300.06;;;22.12;20.75
6506;BME280;3286;49.858;8.768;2023-04-10T13:25:43;99294.09;;;23.20;20.51
6506;BME280;3286;49.858;8.768;2023-04-10T13:28:10;99286.78;;;23.51;19.39
6506;BME280;3286;49.858;8.768;2023-04-10T13:30:37;99284.34;;;22.95;19.93
6506;BME280;3286;49.858;8.768;2023-04-10T13:33:04;99272.41;;;22.72;17.82